Time;durP1;ratioP1;P1;durP2;ratioP2;P2;SDS_P1;SDS_P2;PMS_P1;PMS_P2;Temp;Humidity;BMP_temperature;BMP_pressure;BME280_temperature;BME280_humidity;BME280_pressure;Samples;Min_cycle;Max_cycle;Signal;HPM_P1;HPM_P2
2022/11/13 00:01:13;;;;;;;68.60;64.55;;;;;;;13.87;74.98;102709.53;4998649;28;104194;-50
2022/11/13 00:03:39;;;;;;;66.82;62.90;;;;;;;13.87;74.91;102715.00;5003472;28;102324;-50
2022/11/13 00:06:06;;;;;;;66.60;62.65;;;;;;;13.87;74.87;102720.47;4995985;28;102896;-50
2022/11/13 00:08:32;;;;;;;62.67;59.00;;;;;;;13.87;75.00;102720.47;5005232;28;102604;-50
2022/11/13 00:11:01;;;;;;;66.13;62.22;;;;;;;13.87;75.10;102712.25;5007485;28;103971;-50
2022/11/13 00:13:27;;;;;;;65.55;61.72;;;;;;;13.86;75.11;102707.88;5008645;28;102653;-50
2022/11/13 00:15:58;;;;;;;65.13;61.33;;;;;;;13.87;75.22;102709.53;5005948;28;102029;-50
2022/11/13 00:18:31;;;;;;;65.25;61.55;;;;;;;13.86;75.16;102708.69;5009928;28;102233;-50
2022/11/13 00:21:05;;;;;;;66.65;62.88;;;;;;;13.88;74.99;102697.50;5000870;28;103999;-50
2022/11/13 00:23:36;;;;;;;63.45;59.80;;;;;;;13.87;74.99;102693.09;5002563;28;102742;-50
2022/11/13 00:26:04;;;;;;;63.35;59.67;;;;;;;13.86;74.82;102697.75;5011197;28;102307;-50
2022/11/13 00:28:31;;;;;;;67.75;63.90;;;;;;;13.88;74.89;102689.28;4999327;28;102534;-50
2022/11/13 00:30:59;;;;;;;64.85;61.13;;;;;;;13.87;75.03;102690.38;5010623;28;103863;-50
2022/11/13 00:33:27;;;;;;;67.47;63.60;;;;;;;13.86;74.89;102692.28;4997997;28;101976;-50
2022/11/13 00:35:53;;;;;;;68.43;64.55;;;;;;;13.86;75.09;102685.97;4998351;28;102292;-50
2022/11/13 00:38:20;;;;;;;64.88;61.13;;;;;;;13.85;74.88;102684.31;5004208;28;102303;-50
2022/11/13 00:40:47;;;;;;;62.95;59.17;;;;;;;13.85;74.98;102678.84;5010158;28;103867;-50
2022/11/13 00:43:13;;;;;;;62.97;59.35;;;;;;;13.86;74.93;102680.50;5009793;28;102761;-50
2022/11/13 00:45:41;;;;;;;60.38;56.78;;;;;;;13.87;74.93;102676.69;5012866;28;102197;-50
2022/11/13 00:48:08;;;;;;;65.68;61.95;;;;;;;13.85;74.84;102673.38;4999399;28;102131;-50
2022/11/13 00:50:37;;;;;;;67.45;63.63;;;;;;;13.86;74.97;102675.03;5008583;28;103983;-50
2022/11/13 00:53:04;;;;;;;59.08;55.65;;;;;;;13.85;74.84;102674.22;5012411;28;102616;-50
2022/11/13 00:55:31;;;;;;;64.85;61.08;;;;;;;13.85;74.75;102662.44;5000911;28;102317;-50
2022/11/13 00:57:57;;;;;;;66.55;62.67;;;;;;;13.88;74.71;102656.44;5008512;28;102692;-51
2022/11/13 01:00:24;;;;;;;66.68;62.78;;;;;;;13.86;74.69;102656.69;5004599;28;103867;-50
2022/11/13 01:02:51;;;;;;;66.10;62.33;;;;;;;13.86;74.79;102658.63;5010303;28;102325;-50
2022/11/13 01:05:17;;;;;;;72.68;68.57;;;;;;;13.86;75.06;102647.66;5011165;28;102443;-51
2022/11/13 01:07:45;;;;;;;66.65;62.83;;;;;;;13.84;74.81;102650.63;5006718;28;102713;-50
2022/11/13 01:10:12;;;;;;;69.85;65.70;;;;;;;13.85;74.88;102651.50;4997472;28;103896;-50
2022/11/13 01:12:39;;;;;;;70.30;66.25;;;;;;;13.87;74.82;102654.78;5000931;28;102944;-50
2022/11/13 01:15:06;;;;;;;69.95;65.97;;;;;;;13.85;74.81;102640.53;5009984;28;102388;-50
2022/11/13 01:17:32;;;;;;;68.25;64.30;;;;;;;13.85;74.72;102641.38;5007653;28;102275;-50
2022/11/13 01:19:59;;;;;;;58.88;55.42;;;;;;;13.85;74.85;102646.00;4995659;28;103839;-50
2022/11/13 01:22:25;;;;;;;65.22;61.53;;;;;;;13.85;75.00;102643.28;5007070;28;102363;-50
2022/11/13 01:24:54;;;;;;;71.05;67.03;;;;;;;13.84;74.79;102641.59;5008328;28;102018;-50
2022/11/13 01:27:21;;;;;;;63.97;60.28;;;;;;;13.85;74.71;102637.81;5013874;28;102636;-51
2022/11/13 01:29:47;;;;;;;63.17;59.58;;;;;;;13.83;74.99;102645.41;5005817;28;103958;-51
2022/11/13 01:32:17;;;;;;;64.88;61.33;;;;;;;13.84;74.85;102638.84;5013454;28;102232;-50
2022/11/13 01:34:44;;;;;;;66.35;62.60;;;;;;;13.83;74.86;102631.72;5010094;28;102517;-51
2022/11/13 01:37:10;;;;;;;66.85;63.15;;;;;;;13.84;74.84;102633.38;5010346;28;102275;-51
2022/11/13 01:39:38;;;;;;;70.60;66.70;;;;;;;13.83;74.76;102631.72;5002883;28;104003;-51
2022/11/13 01:42:06;;;;;;;63.38;59.80;;;;;;;13.83;74.70;102627.09;5006433;28;102646;-50
2022/11/13 01:44:49;;;;;;;63.75;60.13;;;;;;;13.83;74.72;102627.09;5001946;28;102271;-50
2022/11/13 01:47:17;;;;;;;66.60;62.80;;;;;;;13.84;74.63;102623.25;5011804;28;102231;-51
2022/11/13 01:49:47;;;;;;;65.25;61.63;;;;;;;13.83;74.75;102623.53;5002204;28;103973;-50
2022/11/13 01:52:17;;;;;;;62.50;58.97;;;;;;;13.83;74.77;102629.00;5005363;28;102490;-50
2022/11/13 01:54:49;;;;;;;62.85;59.25;;;;;;;13.84;74.68;102619.69;5000636;28;102249;-50
2022/11/13 01:57:20;;;;;;;67.93;64.18;;;;;;;13.82;74.97;102621.88;4999527;28;102710;-50
2022/11/13 01:59:51;;;;;;;64.57;61.00;;;;;;;13.83;74.93;102627.09;4995797;28;104107;-50
2022/11/13 02:02:18;;;;;;;61.55;58.05;;;;;;;13.82;75.02;102621.88;5003589;28;103228;-51
2022/11/13 02:04:46;;;;;;;58.93;55.47;;;;;;;13.84;74.70;102619.69;5001931;28;102614;-50
2022/11/13 02:07:15;;;;;;;62.45;58.95;;;;;;;13.83;74.48;102624.34;5001341;28;102381;-50
2022/11/13 02:09:45;;;;;;;;;;;;;;;13.85;74.80;102624.13;5002207;28;104191;-50
2022/11/13 02:12:13;;;;;;;52.20;49.10;;;;;;;13.84;74.15;102622.44;4998710;28;102808;-51
2022/11/13 02:14:53;;;;;;;56.92;53.70;;;;;;;13.83;74.82;102620.78;5001044;28;102474;-50
2022/11/13 02:17:26;;;;;;;62.55;58.95;;;;;;;13.83;74.85;102618.03;5002402;28;102749;-50
2022/11/13 02:19:57;;;;;;;64.05;60.38;;;;;;;13.82;74.67;102624.59;5002494;28;103902;-50
2022/11/13 02:22:32;;;;;;;64.03;60.33;;;;;;;13.82;74.97;102625.44;4999071;28;105448;-50
2022/11/13 02:25:03;;;;;;;63.40;59.80;;;;;;;13.83;74.69;102615.31;5002006;28;102431;-56
2022/11/13 02:27:33;;;;;;;61.20;57.55;;;;;;;13.83;74.80;102620.78;5005247;28;102311;-50
2022/11/13 02:30:11;;;;;;;59.72;56.30;;;;;;;13.82;74.86;102625.44;5001581;28;104119;-50
2022/11/13 02:32:42;;;;;;;67.78;64.00;;;;;;;13.83;74.95;102626.25;5001481;28;102626;-50
2022/11/13 02:35:08;;;;;;;68.47;64.65;;;;;;;13.83;74.74;102627.09;4999555;28;102349;-51
2022/11/13 02:37:37;;;;;;;63.60;59.97;;;;;;;13.83;74.81;102626.25;5000826;28;102616;-50
2022/11/13 02:40:08;;;;;;;;;;;;;;;13.81;74.73;102623.78;5000313;28;104024;-50
2022/11/13 02:42:35;;;;;;;53.78;50.67;;;;;;;13.82;74.75;102630.09;4999585;28;102467;-50
2022/11/13 02:45:02;;;;;;;61.67;57.88;;;;;;;13.81;74.67;102620.19;4998155;28;102476;-50
2022/11/13 02:47:28;;;;;;;59.08;55.72;;;;;;;13.83;74.83;102626.25;4999210;28;102579;-50
2022/11/13 02:49:55;;;;;;;59.65;56.20;;;;;;;13.83;74.75;102627.09;4999030;28;104097;-50
2022/11/13 02:52:21;;;;;;;59.50;55.95;;;;;;;13.84;74.74;102622.44;5000257;28;102493;-50
2022/11/13 02:54:48;;;;;;;59.22;55.80;;;;;;;13.83;74.68;102629.00;4995146;28;102433;-50
2022/11/13 02:57:17;;;;;;;71.57;67.55;;;;;;;13.82;74.72;102625.44;5000980;28;102318;-50
2022/11/13 02:59:45;;;;;;;66.05;62.33;;;;;;;13.84;74.75;102627.91;4995737;28;104130;-50
2022/11/13 03:02:11;;;;;;;61.80;58.25;;;;;;;13.82;74.79;102628.16;4997100;28;102991;-50
2022/11/13 03:04:40;;;;;;;60.30;56.70;;;;;;;13.82;75.02;102627.34;5001595;28;102820;-50
2022/11/13 03:07:06;;;;;;;58.65;55.15;;;;;;;13.81;74.89;102631.13;5006339;28;102321;-50
2022/11/13 03:09:33;;;;;;;62.08;58.33;;;;;;;13.82;74.89;102630.91;5002013;28;103883;-50
2022/11/13 03:11:59;;;;;;;64.35;60.58;;;;;;;13.83;74.84;102626.25;5001694;28;102459;-50
2022/11/13 03:14:28;;;;;;;60.22;56.60;;;;;;;13.82;74.81;102624.59;4996319;28;102297;-50
2022/11/13 03:16:55;;;;;;;60.90;57.28;;;;;;;13.83;74.63;102618.03;5013177;28;102566;-50
2022/11/13 03:19:22;;;;;;;57.65;54.28;;;;;;;13.82;74.79;102630.91;5003838;28;104361;-50
2022/11/13 03:21:49;;;;;;;60.80;57.28;;;;;;;13.82;74.84;102630.09;5000145;28;102428;-50
2022/11/13 03:24:15;;;;;;;61.13;57.67;;;;;;;13.81;74.65;102628.41;5011768;28;102326;-50
2022/11/13 03:26:42;;;;;;;61.97;58.35;;;;;;;13.83;74.46;102612.56;5004030;28;102884;-50
2022/11/13 03:29:08;;;;;;;67.28;63.40;;;;;;;13.83;74.68;102609.84;5000029;28;104122;-50
2022/11/13 03:31:36;;;;;;;55.47;52.10;;;;;;;13.81;74.62;102607.38;5009305;28;102471;-50
2022/11/13 03:34:04;;;;;;;60.65;57.08;;;;;;;13.81;74.58;102603.75;5009232;28;102414;-50
2022/11/13 03:36:30;;;;;;;61.00;57.45;;;;;;;13.80;74.70;102602.13;5011798;28;102456;-50
2022/11/13 03:38:57;;;;;;;55.33;52.03;;;;;;;13.80;74.64;102600.22;5006613;28;104039;-50
2022/11/13 03:41:24;;;;;;;60.30;56.78;;;;;;;13.81;74.87;102601.03;5014720;28;102792;-50
2022/11/13 03:43:52;;;;;;;60.38;56.90;;;;;;;13.81;74.76;102611.97;5006772;28;102455;-50
2022/11/13 03:46:18;;;;;;;57.40;54.03;;;;;;;13.81;74.71;102610.09;5000044;28;102565;-51
2022/11/13 03:48:46;;;;;;;64.20;60.40;;;;;;;13.79;74.69;102606.75;4996517;28;103889;-50
2022/11/13 03:51:13;;;;;;;64.13;60.42;;;;;;;13.81;74.75;102611.97;5000887;28;102070;-50
2022/11/13 03:53:41;;;;;;;66.70;62.83;;;;;;;13.82;74.77;102610.91;5013991;28;102493;-50
2022/11/13 03:56:07;;;;;;;64.45;60.75;;;;;;;13.81;74.99;102601.03;4999478;28;102169;-50
2022/11/13 03:58:34;;;;;;;64.93;61.22;;;;;;;13.82;74.84;102602.72;5011360;28;103909;-50
2022/11/13 04:01:00;;;;;;;59.95;56.47;;;;;;;13.83;74.65;102604.38;5008305;28;102599;-50
2022/11/13 04:03:26;;;;;;;59.72;56.13;;;;;;;13.82;74.60;102597.25;5007918;28;103379;-50
2022/11/13 04:05:54;;;;;;;64.85;60.97;;;;;;;13.81;74.78;102609.25;4999346;28;102214;-50
2022/11/13 04:08:21;;;;;;;59.50;56.00;;;;;;;13.81;74.63;102617.44;5005716;28;104361;-50
2022/11/13 04:10:47;;;;;;;64.82;60.95;;;;;;;13.81;74.55;102603.75;4998738;28;102175;-50
2022/11/13 04:13:14;;;;;;;58.63;55.13;;;;;;;13.81;74.78;102611.97;5000729;28;102252;-50
2022/11/13 04:15:43;;;;;;;63.42;59.72;;;;;;;13.80;74.77;102607.59;5010507;28;102595;-50
2022/11/13 04:18:10;;;;;;;58.92;55.42;;;;;;;13.80;75.04;102613.88;5003696;28;104238;-50
2022/11/13 04:20:37;;;;;;;64.05;60.33;;;;;;;13.78;74.64;102607.03;5009619;28;102316;-50
2022/11/13 04:23:10;;;;;;;62.50;58.83;;;;;;;13.81;74.49;102612.84;4997599;28;102133;-50
2022/11/13 04:25:38;;;;;;;62.72;59.08;;;;;;;13.80;74.77;102615.81;5011887;28;102485;-50
2022/11/13 04:28:05;;;;;;;61.35;57.88;;;;;;;13.79;74.66;102598.56;5007230;28;104746;-50
2022/11/13 04:30:31;;;;;;;59.67;56.08;;;;;;;13.80;74.65;102607.59;5004554;28;102307;-50
2022/11/13 04:32:58;;;;;;;65.80;61.90;;;;;;;13.79;74.81;102609.50;4995382;28;102402;-50
2022/11/13 04:35:24;;;;;;;60.88;57.25;;;;;;;13.78;74.59;102596.06;5002303;28;102214;-50
2022/11/13 04:37:52;;;;;;;66.60;62.78;;;;;;;13.81;74.90;102598.28;5006765;28;104068;-50
2022/11/13 04:40:20;;;;;;;66.90;62.97;;;;;;;13.78;74.60;102599.63;5006188;28;102504;-50
2022/11/13 04:42:49;;;;;;;62.15;58.53;;;;;;;13.80;74.77;102607.59;5010791;28;102428;-50
2022/11/13 04:45:17;;;;;;;68.10;64.10;;;;;;;13.79;74.62;102601.28;5013491;28;102252;-50
2022/11/13 04:47:44;;;;;;;62.45;58.78;;;;;;;13.79;74.70;102604.03;5004224;28;103952;-50
2022/11/13 04:50:11;;;;;;;63.92;60.17;;;;;;;13.80;74.67;102610.31;4998975;28;102123;-50
2022/11/13 04:52:38;;;;;;;64.07;60.45;;;;;;;13.79;74.66;102608.69;5009823;28;102472;-50
2022/11/13 04:55:06;;;;;;;63.78;59.97;;;;;;;13.79;74.89;102597.72;4998583;28;102355;-50
2022/11/13 04:57:34;;;;;;;59.45;55.92;;;;;;;13.79;74.67;102608.69;5011179;28;108073;-51
2022/11/13 05:00:02;;;;;;;59.50;55.92;;;;;;;13.77;74.62;102597.97;5007496;28;102883;-51
2022/11/13 05:02:28;;;;;;;59.10;55.50;;;;;;;13.78;75.02;102601.56;5006062;28;102361;-51
2022/11/13 05:04:55;;;;;;;63.33;59.50;;;;;;;13.77;74.63;102594.41;5011096;28;102220;-50
2022/11/13 05:07:21;;;;;;;66.93;62.88;;;;;;;13.78;74.68;102596.06;5008871;28;104109;-50
2022/11/13 05:09:48;;;;;;;63.83;60.05;;;;;;;13.79;74.75;102603.19;5009905;28;102464;-51
2022/11/13 05:12:15;;;;;;;63.08;59.38;;;;;;;13.80;74.68;102602.13;5013151;28;102089;-50
2022/11/13 05:14:45;;;;;;;63.83;60.07;;;;;;;13.79;74.57;102606.75;4995261;28;102687;-50
2022/11/13 05:17:12;;;;;;;61.00;57.42;;;;;;;13.78;74.81;102599.63;4996863;28;104685;-50
2022/11/13 05:19:40;;;;;;;60.97;57.40;;;;;;;13.79;74.67;102608.69;5003193;28;102622;-50
2022/11/13 05:22:07;;;;;;;64.28;60.47;;;;;;;13.78;74.69;102596.06;5005564;28;102453;-50
2022/11/13 05:24:34;;;;;;;61.35;57.78;;;;;;;13.79;74.82;102595.00;5004795;28;102667;-50
2022/11/13 05:27:01;;;;;;;66.70;62.80;;;;;;;13.80;74.67;102599.38;5000688;28;103898;-50
2022/11/13 05:29:27;;;;;;;66.53;62.70;;;;;;;13.78;74.79;102596.06;5000492;28;102292;-50
2022/11/13 05:31:55;;;;;;;67.57;63.60;;;;;;;13.78;74.71;102593.34;5000863;28;102501;-50
2022/11/13 05:34:22;;;;;;;69.47;65.53;;;;;;;13.78;74.61;102604.28;5005033;28;102209;-50
2022/11/13 05:36:48;;;;;;;65.90;62.05;;;;;;;13.79;74.61;102616.88;5006618;28;104038;-50
2022/11/13 05:39:14;;;;;;;64.28;60.40;;;;;;;13.78;74.75;102607.84;5002960;28;102772;-50
2022/11/13 05:41:41;;;;;;;62.97;59.28;;;;;;;13.78;74.60;102620.72;5004029;28;102242;-50
2022/11/13 05:44:08;;;;;;;61.95;58.28;;;;;;;13.81;74.62;102611.97;5004282;28;102206;-50
2022/11/13 05:46:35;;;;;;;61.55;57.97;;;;;;;13.80;74.77;102613.06;5010419;28;103958;-50
2022/11/13 05:49:04;;;;;;;65.53;61.70;;;;;;;13.80;74.41;102619.34;5010119;28;102261;-51
2022/11/13 05:51:32;;;;;;;63.23;59.53;;;;;;;13.81;74.71;102628.41;4995345;28;102386;-50
2022/11/13 05:53:59;;;;;;;66.47;62.63;;;;;;;13.81;74.50;102622.94;4996809;28;102307;-50
2022/11/13 05:56:28;;;;;;;66.18;62.25;;;;;;;13.80;74.59;102619.34;4995206;28;103932;-50
2022/11/13 05:58:55;;;;;;;62.63;58.93;;;;;;;13.80;74.77;102615.81;5006923;28;102624;-50
2022/11/13 06:01:24;;;;;;;64.22;60.35;;;;;;;13.81;74.73;102618.31;5001306;28;102449;-50
2022/11/13 06:03:51;;;;;;;59.28;55.72;;;;;;;13.81;74.72;102614.72;5004785;28;102170;-50
2022/11/13 06:06:21;;;;;;;67.00;63.13;;;;;;;13.81;74.99;102612.84;5006565;28;104381;-50
2022/11/13 06:08:49;;;;;;;66.30;62.53;;;;;;;13.82;74.53;102616.41;4951869;28;102944;-50
2022/11/13 06:11:17;;;;;;;62.63;58.97;;;;;;;13.82;74.86;102619.13;4954170;28;102339;-50
2022/11/13 06:13:44;;;;;;;60.90;57.28;;;;;;;13.82;74.91;102613.66;4960585;28;102404;-50
2022/11/13 06:16:12;;;;;;;64.70;60.90;;;;;;;13.83;74.71;102607.09;4956973;28;104072;-50
2022/11/13 06:18:40;;;;;;;62.60;58.70;;;;;;;13.84;74.80;102606.00;4957755;28;102351;-50
2022/11/13 06:21:09;;;;;;;66.00;62.22;;;;;;;13.84;74.81;102606.00;4965938;28;102338;-50
2022/11/13 06:23:38;;;;;;;68.40;64.47;;;;;;;13.84;74.98;102616.97;4963023;28;102801;-50
2022/11/13 06:26:06;;;;;;;;;;;;;;;13.84;74.75;102611.50;4958896;28;103783;-50
2022/11/13 06:28:33;;;;;;;55.50;52.00;;;;;;;13.85;74.83;102602.22;4963740;28;102257;-50
2022/11/13 06:31:04;;;;;;;61.88;58.30;;;;;;;13.83;74.77;102605.19;4962566;28;102478;-50
2022/11/13 06:33:31;;;;;;;61.72;58.03;;;;;;;13.85;74.82;102611.25;4958797;28;102685;-50
2022/11/13 06:36:01;;;;;;;63.60;59.83;;;;;;;13.85;74.91;102602.22;4963718;28;103939;-50
2022/11/13 06:38:30;;;;;;;62.50;58.55;;;;;;;13.84;75.04;102600.53;4964088;28;102235;-50
2022/11/13 06:40:59;;;;;;;60.35;56.65;;;;;;;13.83;74.69;102605.19;4963289;28;102402;-50
2022/11/13 06:43:26;;;;;;;60.08;56.45;;;;;;;13.86;74.94;102610.16;4958480;28;102737;-50
2022/11/13 06:45:53;;;;;;;60.50;56.78;;;;;;;13.85;75.01;102600.31;4964897;28;103900;-50
2022/11/13 06:48:20;;;;;;;62.78;59.08;;;;;;;13.87;74.92;102602.78;4954393;28;102214;-50
2022/11/13 06:50:47;;;;;;;64.50;60.63;;;;;;;13.83;75.06;102601.63;4955570;28;102374;-50
2022/11/13 06:53:14;;;;;;;69.30;65.07;;;;;;;13.84;74.92;102597.81;4960072;28;102339;-50
2022/11/13 06:55:43;;;;;;;62.65;58.75;;;;;;;13.84;74.96;102600.53;4956017;28;103614;-50
2022/11/13 06:58:11;;;;;;;63.17;59.40;;;;;;;13.84;75.00;102606.00;4966028;28;102250;-50
2022/11/13 07:00:37;;;;;;;65.00;61.13;;;;;;;13.82;74.95;102598.06;4954550;28;102197;-50
2022/11/13 07:03:04;;;;;;;64.93;60.90;;;;;;;13.84;74.80;102600.53;4964262;28;102514;-50
2022/11/13 07:05:30;;;;;;;64.38;60.47;;;;;;;13.84;74.72;102592.34;4966687;28;103915;-50
2022/11/13 07:07:56;;;;;;;65.05;61.15;;;;;;;13.83;74.80;102582.47;4998558;28;102096;-50
2022/11/13 07:10:23;;;;;;;62.85;59.05;;;;;;;13.85;74.96;102588.53;5007760;28;102595;-50
2022/11/13 07:12:49;;;;;;;60.00;56.22;;;;;;;13.84;74.91;102578.66;4997537;28;102155;-50
2022/11/13 07:15:18;;;;;;;63.85;60.05;;;;;;;13.86;74.95;102587.44;4994097;28;108029;-51
2022/11/13 07:17:45;;;;;;;62.17;58.40;;;;;;;13.87;75.10;102600.06;4995242;28;102085;-51
2022/11/13 07:20:11;;;;;;;66.32;62.30;;;;;;;13.87;74.88;102589.09;5004083;28;102551;-51
2022/11/13 07:22:39;;;;;;;65.57;61.30;;;;;;;13.87;75.01;102586.38;4999723;28;102831;-50
2022/11/13 07:25:07;;;;;;;61.45;57.65;;;;;;;13.87;75.17;102575.41;4993527;28;103905;-50
2022/11/13 07:27:35;;;;;;;64.97;60.97;;;;;;;13.89;75.09;102587.78;4994854;28;102535;-50
2022/11/13 07:30:02;;;;;;;63.17;59.28;;;;;;;13.89;75.16;102589.69;5002124;28;102334;-50
2022/11/13 07:32:32;;;;;;;58.15;54.47;;;;;;;13.91;75.22;102579.31;4998810;28;102676;-51
2022/11/13 07:34:59;;;;;;;63.30;59.47;;;;;;;13.90;75.25;102588.63;5011002;28;103935;-50
2022/11/13 07:37:26;;;;;;;61.58;57.75;;;;;;;13.89;75.43;102578.75;5006655;28;102058;-50
2022/11/13 07:39:52;;;;;;;57.05;53.53;;;;;;;13.90;75.18;102583.13;5009205;28;102415;-50
2022/11/13 07:42:19;;;;;;;61.83;57.92;;;;;;;13.90;75.25;102583.13;5013080;28;102778;-50
2022/11/13 07:44:45;;;;;;;64.45;60.47;;;;;;;13.90;75.11;102580.41;4994325;28;103994;-50
2022/11/13 07:47:12;;;;;;;59.80;56.08;;;;;;;13.90;75.09;102578.50;4999487;28;102788;-50
2022/11/13 07:49:40;;;;;;;61.47;57.65;;;;;;;13.91;75.27;102579.31;5004677;28;102112;-50
2022/11/13 07:52:07;;;;;;;62.08;58.25;;;;;;;13.90;74.99;102573.00;5013838;28;102724;-50
2022/11/13 07:54:34;;;;;;;61.67;57.85;;;;;;;13.91;75.04;102580.13;5003001;28;104105;-50
2022/11/13 07:57:01;;;;;;;59.65;55.92;;;;;;;13.94;75.19;102578.81;4996537;28;102454;-50
2022/11/13 07:59:27;;;;;;;63.92;59.85;;;;;;;13.92;75.16;102581.81;5000638;28;102164;-50
2022/11/13 08:01:54;;;;;;;62.17;58.33;;;;;;;13.93;75.01;102577.16;5013618;28;102598;-50
2022/11/13 08:04:20;;;;;;;61.65;57.83;;;;;;;13.96;74.88;102579.41;5000696;28;104236;-50
2022/11/13 08:06:48;;;;;;;60.00;56.33;;;;;;;13.94;74.89;102579.66;5011807;28;102637;-50
2022/11/13 08:09:15;;;;;;;55.97;52.53;;;;;;;13.95;75.29;102575.00;4997481;28;102221;-50
2022/11/13 08:11:42;;;;;;;59.10;55.40;;;;;;;13.95;75.15;102580.47;5006488;28;102448;-51
2022/11/13 08:14:12;;;;;;;54.88;51.45;;;;;;;13.95;75.15;102569.53;4997542;28;104190;-50
2022/11/13 08:16:39;;;;;;;59.28;55.60;;;;;;;13.98;75.28;102573.69;5002974;28;102532;-50
2022/11/13 08:19:08;;;;;;;60.28;56.50;;;;;;;13.96;75.16;102568.47;4996971;28;102310;-50
2022/11/13 08:21:35;;;;;;;58.83;55.13;;;;;;;13.98;74.81;102569.03;5008885;28;102321;-50
2022/11/13 08:24:03;;;;;;;63.75;59.75;;;;;;;13.97;74.88;102567.38;4995272;28;104429;-50
2022/11/13 08:26:30;;;;;;;60.38;56.60;;;;;;;13.97;75.23;102567.38;5009848;28;102250;-50
2022/11/13 08:28:57;;;;;;;57.15;53.60;;;;;;;13.97;75.17;102561.91;5005098;28;102196;-50
2022/11/13 08:31:23;;;;;;;59.22;55.53;;;;;;;13.96;74.64;102563.00;5001044;28;102318;-50
2022/11/13 08:33:50;;;;;;;63.53;59.42;;;;;;;13.98;75.02;102555.34;5014256;28;103847;-50
2022/11/13 08:36:16;;;;;;;64.65;60.72;;;;;;;13.99;74.83;102561.66;4995140;28;102442;-50
2022/11/13 08:38:43;;;;;;;61.30;57.47;;;;;;;14.00;74.73;102564.16;5002403;28;102270;-50
2022/11/13 08:41:11;;;;;;;55.70;52.05;;;;;;;13.99;75.04;102567.94;4996860;28;102559;-50
2022/11/13 08:43:37;;;;;;;59.30;55.53;;;;;;;13.99;75.03;102562.47;5001613;28;104020;-50
2022/11/13 08:46:04;;;;;;;64.07;60.10;;;;;;;14.00;74.99;102549.63;5010413;28;102015;-50
2022/11/13 08:48:31;;;;;;;61.50;57.70;;;;;;;14.01;74.78;102557.59;4997766;28;102429;-50
2022/11/13 08:50:57;;;;;;;60.53;56.72;;;;;;;14.00;74.86;102558.69;4996882;28;102656;-50
2022/11/13 08:53:24;;;;;;;60.38;56.50;;;;;;;14.01;74.83;102549.38;5000145;28;103880;-50
2022/11/13 08:55:50;;;;;;;62.03;58.03;;;;;;;14.03;74.91;102549.97;5002883;28;102666;-50
2022/11/13 08:58:18;;;;;;;58.55;54.78;;;;;;;14.03;74.74;102543.63;5011482;28;102317;-51
2022/11/13 09:00:45;;;;;;;60.67;56.75;;;;;;;14.04;74.78;102546.16;5007884;28;102472;-50
2022/11/13 09:03:13;;;;;;;61.80;57.88;;;;;;;14.06;74.65;102541.22;5003015;28;103871;-50
2022/11/13 09:05:39;;;;;;;67.57;63.38;;;;;;;14.06;74.77;102538.50;5008620;28;102530;-50
2022/11/13 09:08:06;;;;;;;61.38;57.38;;;;;;;14.07;74.64;102536.59;5002618;28;102213;-50
2022/11/13 09:10:32;;;;;;;63.50;59.53;;;;;;;14.06;74.58;102538.50;5005397;28;102635;-50
2022/11/13 09:13:01;;;;;;;64.10;60.20;;;;;;;14.07;74.68;102529.22;4997825;28;104269;-50
2022/11/13 09:15:31;;;;;;;66.05;61.85;;;;;;;14.08;74.46;102519.91;5004791;28;102243;-50
2022/11/13 09:18:02;;;;;;;67.88;63.75;;;;;;;14.09;74.57;102518.84;4998194;28;102342;-50
2022/11/13 09:20:30;;;;;;;63.70;59.70;;;;;;;14.10;74.43;102517.78;5006918;28;102248;-50
2022/11/13 09:22:57;;;;;;;63.17;59.20;;;;;;;14.09;74.59;102510.63;4997274;28;104032;-50
2022/11/13 09:25:27;;;;;;;62.30;58.25;;;;;;;14.09;74.84;102513.34;5004074;28;102109;-50
2022/11/13 09:27:54;;;;;;;62.83;58.83;;;;;;;14.09;74.64;102515.28;5003628;28;102112;-50
2022/11/13 09:30:22;;;;;;;65.10;60.92;;;;;;;14.09;74.50;102505.13;5002719;28;102380;-50
2022/11/13 09:32:53;;;;;;;65.18;60.92;;;;;;;14.09;74.82;102498.84;4999470;28;104101;-50
2022/11/13 09:35:35;;;;;;;60.97;57.03;;;;;;;14.08;74.61;102508.16;4999452;28;102479;-50
2022/11/13 09:38:03;;;;;;;64.78;59.75;;;;;;;14.07;74.39;102496.38;5007004;28;103863;-50
2022/11/13 09:40:34;;;;;;;65.93;61.33;;;;;;;14.09;74.37;102498.84;5009769;28;102547;-50
2022/11/13 09:43:03;;;;;;;67.10;62.55;;;;;;;14.09;74.02;102499.66;5000952;28;103857;-50
2022/11/13 09:45:31;;;;;;;69.45;64.75;;;;;;;14.09;74.29;102493.38;5009787;28;102720;-49
2022/11/13 09:48:11;;;;;;;69.97;65.15;;;;;;;14.09;74.43;102494.19;4998181;28;102459;-50
2022/11/13 09:50:39;;;;;;;71.07;66.50;;;;;;;14.09;74.20;102494.19;5001030;28;102596;-50
2022/11/13 09:53:05;;;;;;;65.45;61.03;;;;;;;14.08;74.29;102489.81;4997966;28;104188;-50
2022/11/13 09:55:45;;;;;;;69.13;64.43;;;;;;;14.10;74.51;102497.75;4996827;28;102261;-50
2022/11/13 09:58:23;;;;;;;69.15;64.78;;;;;;;14.09;74.12;102488.72;5006242;28;102507;-50
2022/11/13 10:00:49;;;;;;;69.43;64.80;;;;;;;14.10;74.14;102484.91;5008649;28;102599;-50
2022/11/13 10:03:29;;;;;;;67.28;62.83;;;;;;;14.09;74.31;102476.94;4999570;28;104333;-50
2022/11/13 10:06:02;;;;;;;71.43;66.85;;;;;;;14.07;74.47;102479.94;4999085;28;102361;-50
2022/11/13 10:08:34;;;;;;;75.53;70.78;;;;;;;14.09;74.20;102477.75;4999630;28;102840;-50
2022/11/13 10:11:08;;;;;;;65.25;60.95;;;;;;;14.09;74.43;102483.25;4997285;28;103241;-50
2022/11/13 10:13:42;;;;;;;75.57;70.63;;;;;;;14.09;73.76;102477.75;4997952;28;103848;-50
2022/11/13 10:16:18;;;;;;;67.43;63.15;;;;;;;14.07;74.17;102469.00;4999242;28;102776;-50
2022/11/13 10:18:48;;;;;;;71.22;66.70;;;;;;;14.07;74.14;102466.25;4997719;28;102632;-50
2022/11/13 10:21:23;;;;;;;68.50;64.00;;;;;;;14.05;74.16;102467.56;5000949;28;102875;-50
2022/11/13 10:23:55;;;;;;;75.40;70.53;;;;;;;14.07;74.30;102474.47;4996945;28;107820;-50
2022/11/13 10:26:23;;;;;;;65.18;60.88;;;;;;;14.06;74.08;102461.00;4997064;28;102901;-50
2022/11/13 10:28:57;;;;;;;71.72;67.10;;;;;;;14.04;74.10;102464.00;4997694;28;102529;-50
2022/11/13 10:31:23;;;;;;;73.25;68.60;;;;;;;14.06;74.11;102466.50;4999221;28;102869;-49
2022/11/13 10:33:53;;;;;;;69.50;64.90;;;;;;;14.05;74.21;102462.94;4995656;28;103958;-50
2022/11/13 10:36:30;;;;;;;69.93;65.45;;;;;;;14.05;73.95;102457.44;4996111;28;102413;-50
2022/11/13 10:39:01;;;;;;;72.85;68.30;;;;;;;14.06;73.78;102461.00;4997078;28;102696;-50
2022/11/13 10:41:29;;;;;;;76.45;71.55;;;;;;;14.04;73.93;102460.47;4999419;28;102533;-50
2022/11/13 10:44:06;;;;;;;72.80;68.18;;;;;;;14.05;73.95;102456.63;4995725;28;103926;-50
2022/11/13 10:46:33;;;;;;;75.45;70.60;;;;;;;14.04;73.95;102464.00;4996783;28;102164;-50
2022/11/13 10:49:12;;;;;;;72.22;67.63;;;;;;;14.04;73.79;102458.53;5006843;28;102712;-50
2022/11/13 10:51:40;;;;;;;72.68;68.07;;;;;;;14.04;74.13;102464.00;4998777;28;102325;-50
2022/11/13 10:54:23;;;;;;;74.97;70.20;;;;;;;14.03;74.19;102454.16;4995467;28;104088;-50
2022/11/13 10:56:56;;;;;;;68.95;64.60;;;;;;;14.04;74.18;102450.31;4995157;28;102661;-50
2022/11/13 10:59:24;;;;;;;67.80;63.47;;;;;;;14.02;74.08;102455.22;4996871;28;102548;-50
2022/11/13 11:01:51;;;;;;;71.43;67.07;;;;;;;14.02;74.20;102451.66;5004473;28;102419;-50
2022/11/13 11:04:23;;;;;;;71.10;66.63;;;;;;;14.02;74.36;102449.75;4999404;28;103919;-50
2022/11/13 11:06:50;;;;;;;;;;;;;;;14.02;74.51;102443.44;5003642;28;102256;-50